Time;durP1;ratioP1;P1;durP2;ratioP2;P2;SDS_P1;SDS_P2;PMS_P1;PMS_P2;Temp;Humidity;BMP_temperature;BMP_pressure;BME280_temperature;BME280_humidity;BME280_pressure;Samples;Min_cycle;Max_cycle;Signal;HPM_P1;HPM_P2
2022/12/02 00:00:17;;;;;;;;;;;;;;;4.17;75.42;98404.97;4991679;28;19980;-74
2022/12/02 00:02:46;;;;;;;;;;;;;;;4.14;75.70;98410.06;4993651;28;19938;-74
2022/12/02 00:05:25;;;;;;;;;;;;;;;4.23;75.20;98411.19;5010312;28;19933;-74
2022/12/02 00:07:54;;;;;;;;;;;;;;;4.21;76.12;98410.66;4994322;28;19925;-74
2022/12/02 00:10:25;;;;;;;;;;;;;;;4.11;76.08;98408.69;5007775;28;20343;-74
2022/12/02 00:12:54;;;;;;;;;;;;;;;4.11;76.15;98407.91;5008891;28;19926;-74
2022/12/02 00:18:27;;;;;;;;;;;;;;;4.10;75.53;98399.00;5007598;28;19976;-75
2022/12/02 00:20:55;;;;;;;;;;;;;;;4.13;75.81;98395.78;5007573;28;19933;-74
2022/12/02 00:23:25;;;;;;;;;;;;;;;4.17;75.80;98396.09;5018983;28;20029;-74
2022/12/02 00:25:54;;;;;;;;;;;;;;;4.13;76.17;98387.72;5009634;28;20276;-74
2022/12/02 00:28:22;;;;;;;;;;;;;;;4.09;75.84;98383.94;5012404;28;19930;-74
2022/12/02 00:31:15;;;;;;;;;;;;;;;4.07;75.15;98380.69;4995784;28;19929;-74
2022/12/02 00:34:08;;;;;;;;;;;;;;;4.10;75.86;98384.72;4995383;28;19926;-74
2022/12/02 00:36:37;;;;;;;;;;;;;;;4.05;75.96;98372.09;4996071;28;19975;-74
2022/12/02 00:39:07;;;;;;;;;;;;;;;4.09;75.59;98373.16;5002490;28;19932;-74
2022/12/02 00:41:35;;;;;;;;;;;;;;;4.04;75.76;98367.75;4995401;28;20406;-74
2022/12/02 00:46:50;;;;;;;;;;;;;;;4.05;75.76;98369.41;4999232;28;19925;-74
2022/12/02 00:49:21;;;;;;;;;;;;;;;4.03;75.40;98366.13;5011084;28;20159;-74
2022/12/02 00:51:49;;;;;;;;;;;;;;;4.08;75.39;98358.13;4995611;28;19925;-74
2022/12/02 00:54:19;;;;;;;;;;;;;;;4.12;75.40;98367.28;4994597;28;19973;-74
2022/12/02 00:56:52;;;;;;;;;;;;;;;3.95;74.75;98366.63;5001526;28;19925;-75
2022/12/02 00:59:21;;;;;;;;;;;;;;;3.96;75.74;98368.25;4998135;28;19932;-74
2022/12/02 01:01:50;;;;;;;;;;;;;;;3.87;75.06;98364.41;4999687;28;19930;-74
2022/12/02 01:04:18;;;;;;;;;;;;;;;3.87;75.61;98361.72;5012206;28;19971;-74
2022/12/02 01:06:46;;;;;;;;;;;;;;;3.99;74.64;98367.72;5001700;28;19972;-75
2022/12/02 01:09:16;;;;;;;;;;;;;;;3.96;75.55;98365.56;5013411;28;19930;-74
2022/12/02 01:11:45;;;;;;;;;;;;;;;3.84;74.92;98362.25;5005587;28;19926;-75
2022/12/02 01:14:14;;;;;;;;;;;;;;;3.89;74.84;98359.59;5006510;28;19925;-74
2022/12/02 01:16:42;;;;;;;;;;;;;;;3.79;74.58;98352.25;5005682;28;19937;-74
2022/12/02 01:19:11;;;;;;;;;;;;;;;3.84;74.97;98359.56;4990176;28;19926;-75
2022/12/02 01:21:39;;;;;;;;;;;;;;;3.87;74.87;98356.34;5010252;28;19975;-74
2022/12/02 01:24:07;;;;;;;;;;;;;;;3.89;74.62;98360.41;5012349;28;19925;-74
2022/12/02 01:26:38;;;;;;;;;;;;;;;3.89;74.68;98356.91;5011555;28;19930;-74
2022/12/02 01:29:08;;;;;;;;;;;;;;;3.87;74.51;98356.34;5013087;28;19925;-74
2022/12/02 01:31:37;;;;;;;;;;;;;;;3.87;74.08;98359.03;4999313;28;20309;-74
2022/12/02 01:34:08;;;;;;;;;;;;;;;3.78;74.18;98360.56;5011691;28;19925;-74
2022/12/02 01:36:36;;;;;;;;;;;;;;;3.88;74.26;98357.94;4996153;28;19925;-75
2022/12/02 01:39:05;;;;;;;;;;;;;;;3.85;74.89;98356.59;4992891;28;19926;-74
2022/12/02 01:41:33;;;;;;;;;;;;;;;3.97;73.94;98355.63;4994374;28;19933;-75
2022/12/02 01:44:01;;;;;;;;;;;;;;;3.82;74.50;98350.91;4994831;28;19984;-74
2022/12/02 01:46:30;;;;;;;;;;;;;;;3.79;74.61;98354.13;4993653;28;19929;-75
2022/12/02 01:48:59;;;;;;;;;;;;;;;3.74;75.04;98351.41;5013911;28;19930;-74
2022/12/02 01:51:53;;;;;;;;;;;;;;;3.76;75.68;98354.63;4992372;28;19926;-74
2022/12/02 01:54:21;;;;;;;;;;;;;;;3.62;76.39;98348.88;5003209;28;19957;-74
2022/12/02 01:56:53;;;;;;;;;;;;;;;3.67;75.88;98348.91;5018411;28;20310;-74
2022/12/02 01:59:22;;;;;;;;;;;;;;;3.61;76.47;98345.38;4994976;28;19940;-74
2022/12/02 02:01:52;;;;;;;;;;;;;;;3.71;76.18;98344.66;5018509;28;19925;-74
2022/12/02 02:04:20;;;;;;;;;;;;;;;3.80;75.94;98350.38;5002467;28;19979;-74
2022/12/02 02:06:48;;;;;;;;;;;;;;;3.78;76.72;98349.81;4986899;28;19971;-75
2022/12/02 02:09:17;;;;;;;;;;;;;;;3.73;76.98;98344.38;4994624;28;19925;-74
2022/12/02 02:11:46;;;;;;;;;;;;;;;3.72;77.94;98345.47;5004838;28;19932;-74
2022/12/02 02:14:14;;;;;;;;;;;;;;;3.68;77.92;98346.00;4985789;28;19928;-74
2022/12/02 02:16:43;;;;;;;;;;;;;;;3.66;76.97;98342.72;4997289;28;19945;-74
2022/12/02 02:19:13;;;;;;;;;;;;;;;3.68;77.93;98337.94;4991273;28;19929;-74
2022/12/02 02:21:42;;;;;;;;;;;;;;;3.62;77.89;98338.13;4990729;28;20102;-75
2022/12/02 02:24:15;;;;;;;;;;;;;;;3.58;78.00;98342.41;4999332;28;19925;-74
2022/12/02 02:26:44;;;;;;;;;;;;;;;3.46;77.98;98336.34;4996114;28;19925;-74
2022/12/02 02:29:12;;;;;;;;;;;;;;;3.37;78.24;98336.03;5000932;28;19964;-74
2022/12/02 02:31:42;;;;;;;;;;;;;;;3.59;77.70;98331.41;4990168;28;20196;-74
2022/12/02 02:34:10;;;;;;;;;;;;;;;3.43;77.42;98326.94;4992525;28;19932;-74
2022/12/02 02:36:39;;;;;;;;;;;;;;;3.30;78.52;98327.34;4992671;28;19926;-74
2022/12/02 02:39:07;;;;;;;;;;;;;;;3.32;78.52;98330.59;4993013;28;19969;-74
2022/12/02 02:41:37;;;;;;;;;;;;;;;3.33;78.88;98329.53;4988001;28;19949;-74
2022/12/02 02:44:07;;;;;;;;;;;;;;;3.31;78.53;98323.63;5011119;28;20345;-74
2022/12/02 02:46:35;;;;;;;;;;;;;;;3.41;79.14;98324.53;5001828;28;19925;-74
2022/12/02 02:49:04;;;;;;;;;;;;;;;3.42;78.66;98317.28;4990034;28;19929;-74
2022/12/02 02:51:32;;;;;;;;;;;;;;;3.38;78.53;98321.53;4991676;28;19930;-74
2022/12/02 02:54:00;;;;;;;;;;;;;;;3.44;78.72;98317.00;4981756;28;20019;-74
2022/12/02 02:56:28;;;;;;;;;;;;;;;3.56;78.34;98315.78;5006618;28;19953;-74
2022/12/02 02:59:22;;;;;;;;;;;;;;;3.48;77.90;98321.63;4991698;28;20310;-74
2022/12/02 03:02:15;;;;;;;;;;;;;;;3.48;78.08;98312.75;4999252;28;19952;-74
2022/12/02 03:04:44;;;;;;;;;;;;;;;3.45;77.66;98307.88;4989289;28;19925;-74
2022/12/02 03:07:12;;;;;;;;;;;;;;;3.41;77.69;98310.28;4993471;28;19930;-74
2022/12/02 03:09:41;;;;;;;;;;;;;;;3.46;78.57;98320.25;4988633;28;19948;-74
2022/12/02 03:12:09;;;;;;;;;;;;;;;3.49;77.44;98309.00;4985466;28;19930;-74
2022/12/02 03:14:37;;;;;;;;;;;;;;;3.36;77.65;98310.25;5011230;28;20291;-74
2022/12/02 03:17:05;;;;;;;;;;;;;;;3.37;77.70;98306.47;4994147;28;19925;-74
2022/12/02 03:19:33;;;;;;;;;;;;;;;3.41;77.29;98302.22;4997124;28;19948;-74
2022/12/02 03:22:02;;;;;;;;;;;;;;;3.37;77.79;98296.56;4996996;28;19930;-74
2022/12/02 03:24:30;;;;;;;;;;;;;;;3.37;77.33;98296.56;5014476;28;19931;-74
2022/12/02 03:26:59;;;;;;;;;;;;;;;3.40;77.60;98295.22;5012461;28;20268;-74
2022/12/02 03:29:27;;;;;;;;;;;;;;;3.42;77.67;98293.09;5027670;28;19970;-74
2022/12/02 03:31:55;;;;;;;;;;;;;;;3.35;77.31;98292.47;5005906;28;19936;-74
2022/12/02 03:34:23;;;;;;;;;;;;;;;3.35;77.59;98287.13;4997072;28;19925;-74
2022/12/02 03:36:51;;;;;;;;;;;;;;;3.32;77.74;98287.63;4996471;28;19940;-74
2022/12/02 03:39:21;;;;;;;;;;;;;;;3.36;77.69;98286.88;5014819;28;19980;-74
2022/12/02 03:41:51;;;;;;;;;;;;;;;3.35;77.16;98276.38;5010224;28;19962;-74
2022/12/02 03:44:19;;;;;;;;;;;;;;;3.32;77.79;98284.97;5004807;28;20081;-74
2022/12/02 03:46:53;;;;;;;;;;;;;;;3.38;77.29;98292.00;5008876;28;19932;-74
2022/12/02 03:49:46;;;;;;;;;;;;;;;3.37;78.21;98277.75;5000999;28;19929;-75
2022/12/02 03:52:14;;;;;;;;;;;;;;;3.49;77.88;98282.16;4989932;28;19933;-74
2022/12/02 03:54:43;;;;;;;;;;;;;;;3.39;77.61;98283.66;5007843;28;19933;-75
2022/12/02 03:57:11;;;;;;;;;;;;;;;3.45;77.57;98275.66;5013360;28;20432;-75
2022/12/02 04:02:54;;;;;;;;;;;;;;;3.40;78.27;98276.41;4996737;28;20291;-74
2022/12/02 04:05:23;;;;;;;;;;;;;;;3.28;77.90;98271.22;4992482;28;20295;-74
2022/12/02 04:07:52;;;;;;;;;;;;;;;3.32;77.83;98276.91;4978827;28;19930;-75
2022/12/02 04:10:21;;;;;;;;;;;;;;;3.33;77.99;98273.16;4993691;28;19980;-74
2022/12/02 04:12:50;;;;;;;;;;;;;;;3.26;77.69;98277.91;5010060;28;19932;-74
2022/12/02 04:15:22;;;;;;;;;;;;;;;3.26;77.52;98272.56;5011847;28;19925;-74
2022/12/02 04:17:50;;;;;;;;;;;;;;;3.24;77.96;98274.66;5002660;28;19933;-74
2022/12/02 04:20:21;;;;;;;;;;;;;;;3.25;77.31;98269.06;5008811;28;19967;-75
2022/12/02 04:23:16;;;;;;;;;;;;;;;3.30;77.68;98268.28;5012135;28;19991;-74
2022/12/02 04:25:45;;;;;;;;;;;;;;;3.43;77.11;98262.50;4995595;28;20009;-74
2022/12/02 04:28:13;;;;;;;;;;;;;;;3.41;76.47;98253.88;5024590;28;19932;-74
2022/12/02 04:30:41;;;;;;;;;;;;;;;3.32;77.22;98258.09;5014201;28;20294;-74
2022/12/02 04:33:10;;;;;;;;;;;;;;;3.28;77.49;98256.97;5008379;28;20060;-75
2022/12/02 04:35:38;;;;;;;;;;;;;;;3.41;77.05;98264.63;5001732;28;19976;-75
2022/12/02 04:38:06;;;;;;;;;;;;;;;3.43;76.59;98257.13;4995314;28;19932;-74
2022/12/02 04:40:39;;;;;;;;;;;;;;;3.34;76.56;98253.28;5012936;28;19925;-75
2022/12/02 04:43:10;;;;;;;;;;;;;;;3.38;76.63;98249.81;5026776;28;19936;-75
2022/12/02 04:45:38;;;;;;;;;;;;;;;3.38;75.98;98257.06;4992715;28;19932;-74
2022/12/02 04:48:06;;;;;;;;;;;;;;;3.44;75.70;98248.00;4999090;28;20012;-75
2022/12/02 04:50:34;;;;;;;;;;;;;;;3.50;75.14;98260.38;4996690;28;19929;-75
2022/12/02 04:53:03;;;;;;;;;;;;;;;3.47;75.17;98247.50;5005780;28;19972;-74
2022/12/02 04:55:30;;;;;;;;;;;;;;;3.39;75.49;98256.00;5008933;28;19926;-74
2022/12/02 04:57:59;;;;;;;;;;;;;;;3.41;75.85;98252.00;5007769;28;19972;-75
2022/12/02 05:00:31;;;;;;;;;;;;;;;3.32;75.17;98252.72;4996237;28;20048;-75
2022/12/02 05:03:02;;;;;;;;;;;;;;;3.34;75.66;98255.97;4990494;28;19929;-75
2022/12/02 05:05:31;;;;;;;;;;;;;;;3.26;75.45;98251.88;5011225;28;19925;-75
2022/12/02 05:07:59;;;;;;;;;;;;;;;3.26;75.40;98256.44;5003864;28;19937;-75
2022/12/02 05:10:27;;;;;;;;;;;;;;;3.24;75.41;98253.19;4999525;28;19933;-75
2022/12/02 05:12:55;;;;;;;;;;;;;;;3.28;75.30;98254.31;5010332;28;19925;-75
2022/12/02 05:15:23;;;;;;;;;;;;;;;3.25;75.25;98244.91;5005321;28;20386;-75
2022/12/02 05:17:53;;;;;;;;;;;;;;;3.25;75.55;98246.75;4997508;28;19933;-75
2022/12/02 05:20:21;;;;;;;;;;;;;;;3.32;76.15;98244.66;5004898;28;19941;-75
2022/12/02 05:25:43;;;;;;;;;;;;;;;3.40;74.71;98246.88;5001654;28;20619;-75
2022/12/02 05:28:12;;;;;;;;;;;;;;;3.29;75.04;98245.97;4986430;28;20253;-75
2022/12/02 05:30:40;;;;;;;;;;;;;;;3.32;74.72;98245.47;5001230;28;19933;-75
2022/12/02 05:33:09;;;;;;;;;;;;;;;3.37;75.33;98233.97;4978947;28;20310;-75
2022/12/02 05:35:38;;;;;;;;;;;;;;;3.48;75.53;98241.03;4989543;28;20042;-75
2022/12/02 05:38:07;;;;;;;;;;;;;;;3.45;74.18;98238.84;4994794;28;19926;-75
2022/12/02 05:40:39;;;;;;;;;;;;;;;3.47;74.35;98242.13;5010487;28;19969;-75
2022/12/02 05:43:14;;;;;;;;;;;;;;;3.50;73.91;98235.41;5013341;28;20040;-75
2022/12/02 05:51:27;;;;;;;;;;;;;;;3.42;73.50;98240.19;4986492;28;19933;-75
2022/12/02 05:53:56;;;;;;;;;;;;;;;3.44;73.66;98237.25;4988111;28;20441;-75
2022/12/02 05:56:24;;;;;;;;;;;;;;;3.44;73.07;98237.25;4988326;28;19929;-74
2022/12/02 05:58:53;;;;;;;;;;;;;;;3.43;73.38;98238.31;5011661;28;19925;-74
2022/12/02 06:01:22;;;;;;;;;;;;;;;3.50;73.38;98235.41;5002631;28;20050;-75
2022/12/02 06:03:52;;;;;;;;;;;;;;;3.36;73.03;98237.72;5004743;28;19972;-75
2022/12/02 06:06:24;;;;;;;;;;;;;;;3.38;73.66;98236.41;5003631;28;19932;-75
2022/12/02 06:08:53;;;;;;;;;;;;;;;3.39;73.36;98242.56;5013356;28;19929;-74
2022/12/02 06:11:24;;;;;;;;;;;;;;;3.37;72.80;98245.53;5001408;28;20402;-75
2022/12/02 06:13:52;;;;;;;;;;;;;;;3.30;73.20;98241.41;5011454;28;19960;-75
2022/12/02 06:16:22;;;;;;;;;;;;;;;3.36;73.00;98235.03;4995160;28;19929;-74
2022/12/02 06:18:51;;;;;;;;;;;;;;;3.43;72.39;98243.69;5006546;28;20359;-74
2022/12/02 06:21:21;;;;;;;;;;;;;;;3.43;72.10;98238.31;4994906;28;19933;-75
2022/12/02 06:23:50;;;;;;;;;;;;;;;3.47;71.98;98241.31;4993978;28;19930;-75
2022/12/02 06:26:19;;;;;;;;;;;;;;;3.54;71.57;98245.38;5004547;28;19925;-74
2022/12/02 06:28:51;;;;;;;;;;;;;;;3.42;71.80;98240.19;4991051;28;20013;-75
2022/12/02 06:31:21;;;;;;;;;;;;;;;3.48;71.75;98241.03;4990019;28;19934;-75
2022/12/02 06:34:14;;;;;;;;;;;;;;;3.50;71.99;98238.09;5022025;28;19981;-74
2022/12/02 06:37:33;;;;;;;;;;;;;;;3.45;72.24;98238.84;5008010;28;19933;-74
2022/12/02 06:40:01;;;;;;;;;;;;;;;3.47;71.94;98236.75;4999431;28;19925;-75
2022/12/02 06:43:14;;;;;;;;;;;;;;;3.48;72.95;98238.34;4997761;28;20032;-75
2022/12/02 06:45:43;;;;;;;;;;;;;;;3.56;72.12;98237.06;5003257;28;19930;-75
2022/12/02 06:48:18;;;;;;;;;;;;;;;3.41;72.09;98243.16;5001446;28;19925;-75
2022/12/02 06:50:47;;;;;;;;;;;;;;;3.55;71.52;98236.25;4999081;28;19933;-76
2022/12/02 06:53:26;;;;;;;;;;;;;;;3.44;71.55;98239.94;5001847;28;19961;-77
2022/12/02 06:58:51;;;;;;;;;;;;;;;3.48;72.04;98235.66;5012509;28;19933;-79
2022/12/02 07:01:23;;;;;;;;;;;;;;;3.41;71.94;98237.78;5014233;28;19934;-77
2022/12/02 07:04:04;;;;;;;;;;;;;;;3.32;72.07;98233.94;5008484;28;20295;-78
2022/12/02 07:06:34;;;;;;;;;;;;;;;3.41;72.53;98243.94;5004683;28;19933;-77
2022/12/02 07:09:26;;;;;;;;;;;;;;;3.53;71.51;98241.09;4986926;28;19969;-77
2022/12/02 07:11:56;;;;;;;;;;;;;;;3.61;71.24;98242.47;4988216;28;19961;-77
2022/12/02 07:14:33;;;;;;;;;;;;;;;3.61;71.29;98243.28;4994056;28;19930;-78
2022/12/02 07:17:02;;;;;;;;;;;;;;;3.64;71.72;98240.09;4991944;28;19936;-77
2022/12/02 07:19:33;;;;;;;;;;;;;;;3.57;70.88;98239.50;5002097;28;20279;-77
2022/12/02 07:22:02;;;;;;;;;;;;;;;3.50;71.31;98236.22;4991521;28;19932;-78
2022/12/02 07:24:30;;;;;;;;;;;;;;;3.47;71.41;98244.81;4989174;28;19933;-75
2022/12/02 07:26:59;;;;;;;;;;;;;;;3.44;72.25;98239.13;5003394;28;20024;-77
2022/12/02 07:29:32;;;;;;;;;;;;;;;3.43;70.99;98232.94;5018078;28;19926;-78
2022/12/02 07:32:01;;;;;;;;;;;;;;;3.55;70.91;98241.63;5011555;28;19933;-76
2022/12/02 07:34:32;;;;;;;;;;;;;;;3.46;70.91;98239.66;4993699;28;20197;-77
2022/12/02 07:37:24;;;;;;;;;;;;;;;3.56;70.95;98237.88;4990752;28;20505;-77
2022/12/02 07:39:52;;;;;;;;;;;;;;;3.47;71.68;98242.13;4982765;28;19925;-77
2022/12/02 07:42:23;;;;;;;;;;;;;;;3.47;70.76;98244.81;5005147;28;19995;-77
2022/12/02 07:44:51;;;;;;;;;;;;;;;3.45;70.75;98238.84;4991947;28;19932;-76
2022/12/02 07:47:19;;;;;;;;;;;;;;;3.55;70.97;98247.00;5009515;28;20291;-77
2022/12/02 07:49:48;;;;;;;;;;;;;;;3.61;71.24;98243.28;4983697;28;19925;-77
2022/12/02 07:52:16;;;;;;;;;;;;;;;3.70;71.15;98240.13;4987521;28;19930;-78
2022/12/02 07:54:45;;;;;;;;;;;;;;;3.67;70.92;98234.22;4988306;28;19936;-75
2022/12/02 07:57:13;;;;;;;;;;;;;;;3.70;71.10;98234.75;4998488;28;19926;-75
2022/12/02 08:05:34;;;;;;;;;;;;;;;3.51;70.95;98240.50;4991284;28;19925;-74
2022/12/02 08:08:02;;;;;;;;;;;;;;;3.57;71.69;98242.19;5007894;28;19972;-75
2022/12/02 08:10:30;;;;;;;;;;;;;;;3.54;71.60;98240.00;4992063;28;19933;-75
2022/12/02 08:12:58;;;;;;;;;;;;;;;3.64;71.83;98244.66;5010705;28;19932;-73
2022/12/02 08:15:33;;;;;;;;;;;;;;;3.54;71.41;98237.31;5000101;28;19930;-75
2022/12/02 08:18:02;;;;;;;;;;;;;;;3.43;71.48;98238.31;5013708;28;19935;-76
2022/12/02 08:20:31;;;;;;;;;;;;;;;3.45;71.68;98236.16;5010333;28;19932;-74
2022/12/02 08:23:04;;;;;;;;;;;;;;;3.57;71.88;98235.97;5007789;28;19932;-75
2022/12/02 08:25:57;;;;;;;;;;;;;;;3.69;71.47;98236.63;5003587;28;20347;-74
2022/12/02 08:28:26;;;;;;;;;;;;;;;3.64;71.17;98240.09;4994685;28;19929;-74
2022/12/02 08:30:55;;;;;;;;;;;;;;;3.53;71.32;98242.97;4987114;28;19937;-75
2022/12/02 08:33:23;;;;;;;;;;;;;;;3.53;71.68;98243.78;5013899;28;20394;-73
2022/12/02 08:35:52;;;;;;;;;;;;;;;3.57;72.01;98238.66;4982823;28;19926;-75
2022/12/02 08:38:21;;;;;;;;;;;;;;;3.64;70.83;98237.41;4996364;28;19963;-73
2022/12/02 08:40:49;;;;;;;;;;;;;;;3.59;70.69;98232.00;4993461;28;20027;-75
2022/12/02 08:43:18;;;;;;;;;;;;;;;3.77;70.54;98236.13;5003892;28;19989;-74
2022/12/02 08:45:46;;;;;;;;;;;;;;;3.77;70.42;98238.00;5001717;28;19936;-75
2022/12/02 08:48:16;;;;;;;;;;;;;;;3.67;70.29;98236.91;5008366;28;19956;-74
2022/12/02 08:50:44;;;;;;;;;;;;;;;3.58;69.75;98233.06;4988579;28;19957;-75
2022/12/02 08:53:12;;;;;;;;;;;;;;;3.57;70.32;98231.44;4993280;28;19932;-75
2022/12/02 08:55:41;;;;;;;;;;;;;;;3.64;70.72;98237.41;4989607;28;19926;-74
2022/12/02 08:58:08;;;;;;;;;;;;;;;3.59;70.53;98232.00;5000443;28;19925;-74
2022/12/02 09:00:38;;;;;;;;;;;;;;;3.78;69.22;98231.56;5000929;28;19944;-74
2022/12/02 09:03:06;;;;;;;;;;;;;;;3.72;68.89;98243.34;5011280;28;19933;-75
2022/12/02 09:05:37;;;;;;;;;;;;;;;3.74;68.69;98235.84;5004065;28;19929;-71
2022/12/02 09:08:05;;;;;;;;;;;;;;;3.74;69.06;98230.47;4995564;28;20415;-74
2022/12/02 09:10:33;;;;;;;;;;;;;;;3.80;67.77;98234.81;4995839;28;20336;-76
2022/12/02 09:13:01;;;;;;;;;;;;;;;3.75;67.83;98234.78;5008273;28;19937;-75
2022/12/02 09:15:30;;;;;;;;;;;;;;;3.87;66.77;98238.06;4985205;28;20314;-75
2022/12/02 09:17:59;;;;;;;;;;;;;;;3.82;67.05;98233.47;5013123;28;19932;-75
2022/12/02 09:20:28;;;;;;;;;;;;;;;3.79;67.29;98238.56;5006823;28;19926;-76
2022/12/02 09:23:21;;;;;;;;;;;;;;;3.78;68.08;98234.25;4992249;28;19932;-75
2022/12/02 09:25:52;;;;;;;;;;;;;;;3.75;67.21;98226.72;4990364;28;20404;-75
2022/12/02 09:28:21;;;;;;;;;;;;;;;3.74;67.52;98225.09;4985650;28;19933;-75
2022/12/02 09:33:41;;;;;;;;;;;;;;;3.83;68.48;98228.91;4987625;28;20305;-75
2022/12/02 09:36:36;;;;;;;;;;;;;;;3.82;68.27;98224.59;5004753;28;19930;-75
2022/12/02 09:39:04;;;;;;;;;;;;;;;3.80;67.95;98224.06;5002388;28;19929;-75
2022/12/02 09:41:34;;;;;;;;;;;;;;;3.86;68.24;98229.22;5007367;28;19971;-76
2022/12/02 09:44:02;;;;;;;;;;;;;;;3.79;68.90;98225.13;4992142;28;19930;-75
2022/12/02 09:46:31;;;;;;;;;;;;;;;3.76;69.32;98225.66;5007010;28;19941;-75
2022/12/02 09:48:59;;;;;;;;;;;;;;;3.71;69.60;98220.25;5014420;28;19926;-73
2022/12/02 09:51:29;;;;;;;;;;;;;;;3.76;70.39;98220.28;5005259;28;20371;-74
2022/12/02 09:53:58;;;;;;;;;;;;;;;3.74;70.24;98225.09;5002459;28;19938;-72
2022/12/02 09:56:26;;;;;;;;;;;;;;;3.61;70.85;98221.78;4983634;28;19929;-75
2022/12/02 09:58:58;;;;;;;;;;;;;;;3.67;71.10;98219.94;5006493;28;19941;-74
2022/12/02 10:01:26;;;;;;;;;;;;;;;3.65;70.90;98217.50;5005980;28;20395;-75
2022/12/02 10:03:57;;;;;;;;;;;;;;;3.74;70.91;98217.03;5004418;28;19925;-75
2022/12/02 10:06:27;;;;;;;;;;;;;;;3.79;70.59;98217.09;5006435;28;20371;-75
2022/12/02 10:08:55;;;;;;;;;;;;;;;3.73;70.64;98213.56;5004277;28;20306;-74
2022/12/02 10:11:26;;;;;;;;;;;;;;;3.63;70.98;98213.47;5005893;28;19929;-73
2022/12/02 10:13:54;;;;;;;;;;;;;;;3.60;72.64;98214.78;5008692;28;19926;-73
2022/12/02 10:16:23;;;;;;;;;;;;;;;3.54;71.84;98209.66;4994646;28;19947;-73
2022/12/02 10:18:52;;;;;;;;;;;;;;;3.48;72.05;98211.50;4985500;28;20379;-73
2022/12/02 10:21:25;;;;;;;;;;;;;;;3.48;72.27;98211.50;4989850;28;19975;-75
2022/12/02 10:23:55;;;;;;;;;;;;;;;3.45;71.71;98209.31;4989190;28;19933;-75
2022/12/02 10:26:23;;;;;;;;;;;;;;;3.45;72.62;98200.44;4998283;28;20012;-75
2022/12/02 10:28:59;;;;;;;;;;;;;;;3.53;73.17;98208.84;5010225;28;19937;-74
2022/12/02 10:31:29;;;;;;;;;;;;;;;3.64;72.73;98204.34;5000273;28;19984;-75
2022/12/02 10:36:52;;;;;;;;;;;;;;;3.63;71.90;98187.44;5005286;28;19926;-74
2022/12/02 10:39:25;;;;;;;;;;;;;;;3.56;71.99;98197.56;4991791;28;19933;-74
2022/12/02 10:42:12;;;;;;;;;;;;;;;3.47;72.29;98193.75;5000374;28;19940;-74
2022/12/02 10:44:42;;;;;;;;;;;;;;;3.34;72.36;98195.00;4987903;28;19934;-74
2022/12/02 10:47:12;;;;;;;;;;;;;;;3.35;73.22;98187.75;4980978;28;19933;-75
2022/12/02 10:49:43;;;;;;;;;;;;;;;3.51;72.29;98188.66;5002098;28;19933;-75
2022/12/02 10:52:11;;;;;;;;;;;;;;;3.47;72.38;98190.28;5001680;28;20378;-75
2022/12/02 10:54:40;;;;;;;;;;;;;;;3.55;72.31;98185.22;5009241;28;20375;-74
2022/12/02 10:57:12;;;;;;;;;;;;;;;3.51;72.51;98186.78;4981052;28;19925;-75
2022/12/02 11:00:05;;;;;;;;;;;;;;;3.33;73.11;98181.84;4996732;28;19948;-75
2022/12/02 11:02:38;;;;;;;;;;;;;;;3.41;72.92;98181.38;5003380;28;19972;-75
2022/12/02 11:05:34;;;;;;;;;;;;;;;3.35;72.61;98180.50;5003097;28;19932;-74
2022/12/02 11:08:06;;;;;;;;;;;;;;;3.35;74.27;98185.06;4993387;28;19929;-75
2022/12/02 11:10:39;;;;;;;;;;;;;;;3.26;73.84;98176.69;5006680;28;20310;-75
2022/12/02 11:13:22;;;;;;;;;;;;;;;3.43;73.37;98176.53;5008971;28;19937;-75
2022/12/02 11:15:50;;;;;;;;;;;;;;;3.34;73.60;98180.75;4981705;28;19926;-76
2022/12/02 11:18:34;;;;;;;;;;;;;;;3.34;73.16;98178.09;5007319;28;19926;-75
2022/12/02 11:21:25;;;;;;;;;;;;;;;3.34;72.93;98175.41;4978179;28;19934;-75
2022/12/02 11:24:08;;;;;;;;;;;;;;;3.28;73.53;98173.75;4997547;28;19953;-74
2022/12/02 11:26:51;;;;;;;;;;;;;;;3.37;73.29;98173.00;5002758;28;20390;-74
2022/12/02 11:29:20;;;;;;;;;;;;;;;3.28;72.75;98163.00;4994346;28;19930;-74
2022/12/02 11:32:02;;;;;;;;;;;;;;;3.20;73.04;98167.00;5010201;28;20397;-75
2022/12/02 11:34:40;;;;;;;;;;;;;;;3.23;73.25;98162.97;5005636;28;19929;-75
2022/12/02 11:37:40;;;;;;;;;;;;;;;3.13;73.22;98166.38;5007322;28;19926;-75
2022/12/02 11:40:28;;;;;;;;;;;;;;;3.06;73.47;98161.22;5005747;28;19933;-76
2022/12/02 11:43:11;;;;;;;;;;;;;;;3.07;73.87;98165.53;4999118;28;19933;-75
2022/12/02 11:45:57;;;;;;;;;;;;;;;3.14;73.81;98158.09;4988562;28;19969;-75
2022/12/02 11:48:25;;;;;;;;;;;;;;;3.22;72.85;98158.66;4996468;28;20032;-74
2022/12/02 11:51:31;;;;;;;;;;;;;;;3.14;72.73;98159.94;5004941;28;19940;-75
2022/12/02 11:54:00;;;;;;;;;;;;;;;3.02;73.03;98160.13;5005769;28;19957;-76
2022/12/02 11:56:29;;;;;;;;;;;;;;;2.89;73.60;98160.56;5012063;28;19941;-76
2022/12/02 11:59:00;;;;;;;;;;;;;;;2.91;73.68;98153.06;4990004;28;19933;-76
2022/12/02 12:01:30;;;;;;;;;;;;;;;2.89;73.99;98157.88;5001394;28;19976;-76
2022/12/02 12:03:58;;;;;;;;;;;;;;;3.09;73.71;98160.72;4980499;28;20384;-75
2022/12/02 12:06:30;;;;;;;;;;;;;;;3.13;73.45;98147.59;5005150;28;19934;-75
2022/12/02 12:08:59;;;;;;;;;;;;;;;3.07;74.56;98160.16;4990293;28;20024;-76
2022/12/02 12:11:28;;;;;;;;;;;;;;;2.99;74.71;98155.28;4998572;28;20362;-76
2022/12/02 12:13:57;;;;;;;;;;;;;;;2.96;74.77;98155.78;5011227;28;19971;-76
2022/12/02 12:16:26;;;;;;;;;;;;;;;2.86;75.51;98151.13;5011273;28;19937;-76
2022/12/02 12:18:58;;;;;;;;;;;;;;;2.90;75.38;98151.44;4987687;28;20345;-76
2022/12/02 12:21:41;;;;;;;;;;;;;;;2.98;75.59;98142.91;4993055;28;20390;-76
2022/12/02 12:24:28;;;;;;;;;;;;;;;2.97;75.61;98138.59;4987178;28;19933;-75
2022/12/02 12:26:58;;;;;;;;;;;;;;;3.00;75.12;98139.97;4983727;28;19955;-76
2022/12/02 12:29:30;;;;;;;;;;;;;;;2.96;75.26;98131.63;4981816;28;20016;-76
2022/12/02 12:31:59;;;;;;;;;;;;;;;2.92;75.54;98137.75;5010504;28;19937;-76
2022/12/02 12:34:29;;;;;;;;;;;;;;;2.85;75.67;98128.06;5008613;28;19961;-76
2022/12/02 12:36:57;;;;;;;;;;;;;;;2.94;75.82;98131.09;5012217;28;19953;-76
2022/12/02 12:39:27;;;;;;;;;;;;;;;3.07;74.95;98129.81;5012224;28;19929;-75
2022/12/02 12:41:58;;;;;;;;;;;;;;;2.74;76.18;98125.53;4986893;28;19952;-76
2022/12/02 12:44:28;;;;;;;;;;;;;;;2.70;76.06;98117.19;4999477;28;19933;-73
2022/12/02 12:46:59;;;;;;;;;;;;;;;2.85;76.07;98125.38;4988597;28;19925;-75
2022/12/02 12:49:30;;;;;;;;;;;;;;;2.86;75.73;98124.28;4998300;28;19930;-76
2022/12/02 12:51:59;;;;;;;;;;;;;;;2.78;75.88;98126.66;5004535;28;20417;-76
2022/12/02 12:54:27;;;;;;;;;;;;;;;2.88;76.09;98121.38;5005551;28;19934;-76
2022/12/02 12:56:55;;;;;;;;;;;;;;;2.74;75.93;98125.53;5005870;28;19936;-76
2022/12/02 12:59:23;;;;;;;;;;;;;;;2.72;76.49;98123.13;5015904;28;19925;-76
2022/12/02 13:01:51;;;;;;;;;;;;;;;2.72;76.87;98123.13;5006630;28;19946;-76
2022/12/02 13:04:25;;;;;;;;;;;;;;;2.81;76.99;98124.25;4990222;28;19929;-76
2022/12/02 13:06:54;;;;;;;;;;;;;;;2.88;76.96;98116.00;4997168;28;20306;-76
2022/12/02 13:09:23;;;;;;;;;;;;;;;2.93;77.48;98124.09;5003889;28;19925;-76
2022/12/02 13:11:51;;;;;;;;;;;;;;;3.04;76.43;98120.44;5008687;28;20020;-74
2022/12/02 13:14:20;;;;;;;;;;;;;;;2.95;76.67;98121.97;5003319;28;19963;-76
2022/12/02 13:16:48;;;;;;;;;;;;;;;3.04;75.95;98120.44;5011117;28;19933;-77
2022/12/02 13:19:17;;;;;;;;;;;;;;;2.91;76.29;98125.41;5004827;28;19987;-76
2022/12/02 13:21:47;;;;;;;;;;;;;;;2.81;77.11;98118.88;4991878;28;19932;-76
2022/12/02 13:24:19;;;;;;;;;;;;;;;2.80;77.38;98119.16;5002980;28;19932;-75
2022/12/02 13:26:48;;;;;;;;;;;;;;;2.81;77.75;98115.41;5000119;28;19926;-76
2022/12/02 13:29:17;;;;;;;;;;;;;;;2.82;77.89;98117.00;4993569;28;20330;-76
2022/12/02 13:37:31;;;;;;;;;;;;;;;2.67;78.48;98122.28;4995413;28;19933;-76
2022/12/02 13:40:02;;;;;;;;;;;;;;;2.67;78.57;98124.94;5002484;28;19926;-76
2022/12/02 13:42:33;;;;;;;;;;;;;;;2.65;78.46;98129.75;4988417;28;20434;-76
2022/12/02 13:45:01;;;;;;;;;;;;;;;2.61;78.40;98132.94;5005432;28;19937;-75
2022/12/02 13:47:30;;;;;;;;;;;;;;;2.50;78.23;98135.75;4998763;28;20240;-76
2022/12/02 13:50:23;;;;;;;;;;;;;;;2.54;78.89;98135.00;4982086;28;20299;-76
2022/12/02 13:52:51;;;;;;;;;;;;;;;2.49;78.89;98137.63;4995326;28;20019;-76
2022/12/02 13:55:21;;;;;;;;;;;;;;;2.58;78.46;98133.44;5007580;28;19965;-76
2022/12/02 13:57:50;;;;;;;;;;;;;;;2.58;78.07;98138.00;5003938;28;19926;-77